Platamon — SW7972 — position and weather

sailwx.info

Track history (hours):
 
Tides and Currents Weather Stations Pressure Air Temp Water Temp Dewpoint Dewpoint Depression Visibility Wind Speed Wind Dir Waves Ship Positions

Platamon

Last reported at 2018-Jan-23 20:00 UTC. Time now 2018-Jan-23 20:11 UTC.
Position N 37°57' E 023°37'.

Length 28 m.

Type: Fishing. MMSI: 237644000.

Date/timePositionNaut miles runAvg speedWind from/ knotsBaromVisibWave heightAir tempDewpointWater temp
2018-Jan-23 20:00N 37°57' E 023°37'0 0.0
2018-Jan-23 19:30N 37°57' E 023°37'0 0.0
2018-Jan-23 19:00N 37°57' E 023°37'0 0.0
2018-Jan-23 18:30N 37°57' E 023°37'0 0.5
2018-Jan-23 18:00N 37°57' E 023°36'4 7.8
2018-Jan-23 17:30N 37°54' E 023°36'5 9.2
2018-Jan-23 17:00N 37°49' E 023°36'4 8.9
2018-Jan-23 16:30N 37°45' E 023°35'5 9.1
2018-Jan-23 16:00N 37°41' E 023°32'4 8.7
2018-Jan-23 15:30N 37°39' E 023°27'1 1.1
2018-Jan-23 15:00N 37°39' E 023°26'1 2.9
2018-Jan-23 14:30N 37°39' E 023°28'1 3.0
2018-Jan-23 14:00N 37°39' E 023°30'1 3.0
2018-Jan-23 13:31N 37°39' E 023°31'2 3.0
2018-Jan-23 13:00N 37°40' E 023°33'2 3.0
2018-Jan-23 12:30N 37°42' E 023°34'2 3.6
2018-Jan-23 12:01N 37°43' E 023°36'0 0.2
2018-Jan-23 11:30N 37°43' E 023°36'1 1.4
2018-Jan-23 11:00N 37°42' E 023°35'1 2.8
2018-Jan-23 10:30N 37°41' E 023°34'1 2.9
2018-Jan-23 10:00N 37°40' E 023°33'1 2.9
2018-Jan-23 09:30N 37°39' E 023°31'2 2.8
2018-Jan-23 08:58N 37°39' E 023°29'1 2.8
2018-Jan-23 08:30N 37°39' E 023°28'2 3.2
2018-Jan-23 08:00N 37°39' E 023°26'1 1.1
2018-Jan-23 07:30N 37°39' E 023°27'1 2.9
2018-Jan-23 07:00N 37°39' E 023°28'2 3.1
2018-Jan-23 06:30N 37°39' E 023°30'2 3.3
2018-Jan-23 06:00N 37°40' E 023°32'2 3.1
2018-Jan-23 05:29N 37°41' E 023°33'1 2.9
2018-Jan-23 05:00N 37°42' E 023°34'2 3.9
2018-Jan-23 04:30N 37°44' E 023°36'4 8.7
2018-Jan-23 04:00N 37°48' E 023°33'5 9.2
2018-Jan-23 03:30N 37°50' E 023°28'5 9.3
2018-Jan-23 03:00N 37°53' E 023°23'4 9.0
2018-Jan-23 02:30N 37°57' E 023°22'1 2.5
2018-Jan-23 02:00N 37°58' E 023°22'0 0.0
2018-Jan-23 01:30N 37°58' E 023°22'0 0.0
2018-Jan-23 01:00N 37°58' E 023°22'0 0.0
2018-Jan-23 00:30N 37°58' E 023°22'0 0.0
2018-Jan-23 00:00N 37°58' E 023°22'0 0.0
2018-Jan-22 23:30N 37°58' E 023°22'0 0.0
2018-Jan-22 23:00N 37°58' E 023°22'0 0.0
2018-Jan-22 22:30N 37°58' E 023°22'0 0.0
2018-Jan-22 22:00N 37°58' E 023°22'0 0.0
2018-Jan-22 21:30N 37°58' E 023°22'0 0.0
2018-Jan-22 21:00N 37°58' E 023°22'0 0.0
2018-Jan-22 20:30N 37°58' E 023°22'0 0.0
2018-Jan-22 20:00N 37°58' E 023°22'0 0.0
2018-Jan-22 19:30N 37°58' E 023°22'0 0.0
2018-Jan-22 19:00N 37°58' E 023°22'0 0.0
2018-Jan-22 18:30N 37°58' E 023°22'0 0.0
2018-Jan-22 18:00N 37°58' E 023°22'0 0.1
2018-Jan-22 17:30N 37°58' E 023°22'2 4.2
2018-Jan-22 17:00N 37°56' E 023°21'1 2.2
2018-Jan-22 16:30N 37°55' E 023°21'2 3.2
2018-Jan-22 16:00N 37°54' E 023°22'2 3.1
2018-Jan-22 15:30N 37°52' E 023°23'2 3.1
2018-Jan-22 15:00N 37°51' E 023°24'1 1.5
2018-Jan-22 14:30N 37°51' E 023°25'1 2.9
2018-Jan-22 14:00N 37°52' E 023°23'2 3.1
2018-Jan-22 13:30N 37°53' E 023°22'2 3.1
2018-Jan-22 13:00N 37°53' E 023°20'2 3.1
2018-Jan-22 12:30N 37°54' E 023°18'2 3.2
2018-Jan-22 12:00N 37°54' E 023°16'2 3.2
2018-Jan-22 11:30N 37°55' E 023°14'2 3.1
2018-Jan-22 11:00N 37°55' E 023°13'2 3.1
2018-Jan-22 10:30N 37°55' E 023°11'0 0.8
2018-Jan-22 10:00N 37°55' E 023°11'1 3.0
2018-Jan-22 09:30N 37°53' E 023°11'1 3.0
2018-Jan-22 09:00N 37°52' E 023°12'1 2.8
2018-Jan-22 08:30N 37°51' E 023°14'1 2.9
2018-Jan-22 08:00N 37°51' E 023°15'2 3.3
2018-Jan-22 07:30N 37°51' E 023°17'2 3.0
2018-Jan-22 07:00N 37°50' E 023°19'2 3.1
2018-Jan-22 06:30N 37°51' E 023°21'2 3.0
2018-Jan-22 06:00N 37°51' E 023°23'1 3.0
2018-Jan-22 05:30N 37°50' E 023°25'3 6.5
2018-Jan-22 05:00N 37°52' E 023°29'5 9.1
2018-Jan-22 04:29N 37°55' E 023°33'4 0.3
2018-Jan-21 17:07N 37°57' E 023°37'0 3.4
2018-Jan-21 17:00N 37°57' E 023°36'4 8.8
2018-Jan-21 16:29N 37°54' E 023°32'5 9.2
2018-Jan-21 15:59N 37°52' E 023°27'3 6.4
2018-Jan-21 15:30N 37°51' E 023°24'1 2.2
2018-Jan-21 15:00N 37°51' E 023°22'2 3.0
2018-Jan-21 14:30N 37°51' E 023°20'1 3.0
2018-Jan-21 14:00N 37°51' E 023°19'1 2.2
2018-Jan-21 13:30N 37°51' E 023°17'1 2.9
2018-Jan-21 13:00N 37°51' E 023°15'1 2.8
2018-Jan-21 12:30N 37°51' E 023°14'1 2.9
2018-Jan-21 12:00N 37°52' E 023°12'1 2.8
2018-Jan-21 11:30N 37°53' E 023°11'1 2.8
2018-Jan-21 11:00N 37°54' E 023°11'1 1.6
2018-Jan-21 10:30N 37°55' E 023°11'1 2.0
2018-Jan-21 10:00N 37°54' E 023°11'2 3.1
2018-Jan-21 09:30N 37°53' E 023°11'2 3.1
2018-Jan-21 09:00N 37°51' E 023°12'1 2.9
2018-Jan-21 08:30N 37°51' E 023°14'2 3.1
2018-Jan-21 08:00N 37°51' E 023°16'2 3.1
2018-Jan-21 07:30N 37°51' E 023°18'1 2.9
2018-Jan-21 07:00N 37°51' E 023°20'1 3.0
2018-Jan-21 06:30N 37°51' E 023°22'1 3.0
2018-Jan-21 06:00N 37°51' E 023°24'2 3.4
2018-Jan-21 05:30N 37°50' E 023°26'5 8.8
2018-Jan-21 04:59N 37°49' E 023°31'4 9.0
2018-Jan-21 04:30N 37°47' E 023°36'5 8.9
2018-Jan-21 04:00N 37°43' E 023°39'18 7.5
2018-Jan-21 01:32N 37°37' E 024°01'0 8.0
2018-Jan-21 01:29N 37°37' E 024°01'8 8.1
2018-Jan-21 00:26N 37°40' E 024°12'6 8.0
2018-Jan-20 23:39N 37°42' E 024°19'1 8.0
2018-Jan-20 23:30N 37°42' E 024°20'4 8.6
2018-Jan-20 23:00N 37°41' E 024°26'4 8.5
2018-Jan-20 22:29N 37°41' E 024°31'4 8.3
2018-Jan-20 22:00N 37°41' E 024°36'4 8.0
2018-Jan-20 21:30N 37°40' E 024°41'19 5.4
2018-Jan-20 18:00N 37°41' E 025°05'2 3.5
2018-Jan-20 17:28N 37°43' E 025°07'1 0.8
2018-Jan-20 16:41N 37°43' E 025°07'1 2.4
2018-Jan-20 16:19N 37°44' E 025°06'6 3.1
2018-Jan-20 14:25N 37°49' E 025°03'9 2.9
2018-Jan-20 11:10N 37°58' E 025°05'8 2.7
2018-Jan-20 08:08N 37°50' E 025°07'1 2.9
2018-Jan-20 07:56N 37°49' E 025°08'1 2.9
2018-Jan-20 07:30N 37°48' E 025°09'2 2.9
2018-Jan-20 06:57N 37°47' E 025°10'1 2.8
2018-Jan-20 06:30N 37°46' E 025°11'1 2.8
2018-Jan-20 06:00N 37°45' E 025°12'2 3.2
2018-Jan-20 05:16N 37°43' E 025°12'1 3.1
2018-Jan-20 05:00N 37°42' E 025°12'2 4.0
2018-Jan-20 04:30N 37°41' E 025°15'0 0.1
2018-Jan-20 04:00N 37°41' E 025°15'3 5.8
2018-Jan-20 03:30N 37°39' E 025°16'5 9.2
2018-Jan-20 03:00N 37°34' E 025°16'5 9.4
2018-Jan-20 02:30N 37°29' E 025°16'5 9.4
2018-Jan-20 02:00N 37°25' E 025°17'4 8.6
2018-Jan-20 01:30N 37°23' E 025°23'1 1.1
2018-Jan-20 01:00N 37°23' E 025°23'1 2.9
2018-Jan-20 00:30N 37°22' E 025°22'1 3.0
2018-Jan-20 00:00N 37°21' E 025°21'2 4.2
2018-Jan-19 23:30N 37°21' E 025°18'1 1.5
2018-Jan-19 23:00N 37°21' E 025°19'2 3.2
2018-Jan-19 22:30N 37°21' E 025°21'2 3.3
2018-Jan-19 22:00N 37°22' E 025°23'2 3.2
2018-Jan-19 21:30N 37°23' E 025°24'2 3.1
2018-Jan-19 21:00N 37°23' E 025°26'2 3.0
2018-Jan-19 20:30N 37°24' E 025°28'2 3.1
2018-Jan-19 20:00N 37°24' E 025°30'1 2.8
2018-Jan-19 19:30N 37°24' E 025°31'3 5.6
2018-Jan-19 19:00N 37°27' E 025°31'4 9.0
2018-Jan-19 18:30N 37°30' E 025°27'5 9.6
2018-Jan-19 18:00N 37°34' E 025°23'510.0
2018-Jan-19 17:29N 37°38' E 025°19'5 9.9
2018-Jan-19 17:00N 37°41' E 025°15'1 1.0
2018-Jan-19 16:30N 37°42' E 025°14'1 2.4
2018-Jan-19 16:00N 37°42' E 025°13'2 2.9
2018-Jan-19 15:28N 37°43' E 025°12'1 3.1
2018-Jan-19 15:00N 37°45' E 025°12'2 2.9
2018-Jan-19 14:24N 37°46' E 025°11'12 3.1
2018-Jan-19 10:40N 37°57' E 025°05'0 0.6
2018-Jan-19 09:56N 37°57' E 025°05'9 3.0
2018-Jan-19 07:01N 37°48' E 025°09'1 3.0
2018-Jan-19 06:50N 37°48' E 025°09'1 3.0
2018-Jan-19 06:26N 37°47' E 025°10'3 3.0
2018-Jan-19 05:30N 37°45' E 025°12'2 3.0
2018-Jan-19 05:00N 37°43' E 025°12'3 5.7
2018-Jan-19 04:30N 37°41' E 025°14'4 7.5
2018-Jan-19 04:00N 37°37' E 025°16'4 7.6
2018-Jan-19 03:30N 37°34' E 025°15'4 7.9
2018-Jan-19 03:00N 37°31' E 025°12'2 4.2
2018-Jan-19 02:30N 37°32' E 025°10'0 0.0
2018-Jan-19 02:00N 37°32' E 025°10'0 0.0
2018-Jan-19 01:05N 37°32' E 025°10'0 0.0
2018-Jan-19 00:54N 37°32' E 025°10'0 0.0
2018-Jan-19 00:21N 37°32' E 025°10'0 0.0
2018-Jan-18 23:58N 37°32' E 025°10'0 0.0
2018-Jan-18 23:25N 37°32' E 025°10'0 0.0
2018-Jan-18 22:58N 37°32' E 025°10'0 0.0
2018-Jan-18 22:30N 37°32' E 025°10'0 0.0
2018-Jan-18 21:59N 37°32' E 025°10'0 0.0
2018-Jan-18 21:28N 37°32' E 025°10'0 0.0
2018-Jan-18 21:00N 37°32' E 025°10'0 0.0
2018-Jan-18 20:29N 37°32' E 025°10'0 0.0
2018-Jan-18 20:00N 37°32' E 025°10'0 0.0
2018-Jan-18 19:29N 37°32' E 025°10'0 0.0
2018-Jan-18 19:00N 37°32' E 025°10'0 0.0
2018-Jan-18 18:30N 37°32' E 025°10'0 0.0
2018-Jan-18 18:00N 37°32' E 025°10'0 0.0
2018-Jan-18 17:30N 37°32' E 025°10'0 0.0
2018-Jan-18 17:00N 37°32' E 025°10'0 0.0
2018-Jan-18 16:30N 37°32' E 025°10'0 0.0
2018-Jan-18 16:00N 37°32' E 025°10'0 0.0
2018-Jan-18 15:30N 37°32' E 025°10'0 0.0
2018-Jan-18 15:00N 37°32' E 025°10'0 0.0
2018-Jan-18 14:30N 37°32' E 025°10'0 0.0
2018-Jan-18 14:00N 37°32' E 025°10'0 0.0
2018-Jan-18 13:30N 37°32' E 025°10'0 0.0
2018-Jan-18 13:00N 37°32' E 025°10'0 0.0
2018-Jan-18 12:24N 37°32' E 025°10'0 0.0
2018-Jan-18 12:00N 37°32' E 025°10'0 0.0
2018-Jan-18 11:30N 37°32' E 025°10'0 0.0
2018-Jan-18 11:00N 37°32' E 025°10'0 0.0
2018-Jan-18 10:30N 37°32' E 025°10'0 0.0
2018-Jan-18 10:00N 37°32' E 025°10'0 0.0
2018-Jan-18 09:30N 37°32' E 025°10'0 0.0
2018-Jan-18 09:00N 37°32' E 025°10'0 0.0
2018-Jan-18 08:25N 37°32' E 025°10'0 0.0
2018-Jan-18 08:00N 37°32' E 025°10'1 1.5
2018-Jan-18 07:30N 37°32' E 025°09'3 6.6
2018-Jan-18 07:00N 37°31' E 025°14'2 4.7
2018-Jan-18 06:30N 37°33' E 025°14'0 0.1
2018-Jan-18 06:00N 37°33' E 025°14'0 0.1
2018-Jan-18 05:30N 37°33' E 025°14'0 0.0
2018-Jan-18 05:00N 37°33' E 025°14'0 0.0
2018-Jan-18 04:30N 37°33' E 025°14'0 0.0
2018-Jan-18 04:00N 37°33' E 025°14'0 0.2
2018-Jan-18 03:30N 37°33' E 025°14'0 0.6
2018-Jan-18 03:00N 37°34' E 025°14'3 6.7
2018-Jan-18 02:30N 37°37' E 025°16'6 9.2
2018-Jan-18 01:50N 37°40' E 025°09'  
Track history (hours):
 
Tides and Currents Weather Stations Pressure Air Temp Water Temp Dewpoint Dewpoint Depression Visibility Wind Speed Wind Dir Waves Ship Positions

Platamon

Last reported at 2018-Jan-23 20:00 UTC. Time now 2018-Jan-23 20:11 UTC.
Position N 37°57' E 023°37'.

Length 28 m.

Type: Fishing. MMSI: 237644000.

Date/timePositionNaut miles runAvg speedWind from/ knotsBaromVisibWave heightAir tempDewpointWater temp
2018-Jan-23 20:00N 37°57' E 023°37'0 0.0
2018-Jan-23 19:30N 37°57' E 023°37'0 0.0
2018-Jan-23 19:00N 37°57' E 023°37'0 0.0
2018-Jan-23 18:30N 37°57' E 023°37'0 0.5
2018-Jan-23 18:00N 37°57' E 023°36'4 7.8
2018-Jan-23 17:30N 37°54' E 023°36'5 9.2
2018-Jan-23 17:00N 37°49' E 023°36'4 8.9
2018-Jan-23 16:30N 37°45' E 023°35'5 9.1
2018-Jan-23 16:00N 37°41' E 023°32'4 8.7
2018-Jan-23 15:30N 37°39' E 023°27'1 1.1
2018-Jan-23 15:00N 37°39' E 023°26'1 2.9
2018-Jan-23 14:30N 37°39' E 023°28'1 3.0
2018-Jan-23 14:00N 37°39' E 023°30'1 3.0
2018-Jan-23 13:31N 37°39' E 023°31'2 3.0
2018-Jan-23 13:00N 37°40' E 023°33'2 3.0
2018-Jan-23 12:30N 37°42' E 023°34'2 3.6
2018-Jan-23 12:01N 37°43' E 023°36'0 0.2
2018-Jan-23 11:30N 37°43' E 023°36'1 1.4
2018-Jan-23 11:00N 37°42' E 023°35'1 2.8
2018-Jan-23 10:30N 37°41' E 023°34'1 2.9
2018-Jan-23 10:00N 37°40' E 023°33'1 2.9
2018-Jan-23 09:30N 37°39' E 023°31'2 2.8
2018-Jan-23 08:58N 37°39' E 023°29'1 2.8
2018-Jan-23 08:30N 37°39' E 023°28'2 3.2
2018-Jan-23 08:00N 37°39' E 023°26'1 1.1
2018-Jan-23 07:30N 37°39' E 023°27'1 2.9
2018-Jan-23 07:00N 37°39' E 023°28'2 3.1
2018-Jan-23 06:30N 37°39' E 023°30'2 3.3
2018-Jan-23 06:00N 37°40' E 023°32'2 3.1
2018-Jan-23 05:29N 37°41' E 023°33'1 2.9
2018-Jan-23 05:00N 37°42' E 023°34'2 3.9
2018-Jan-23 04:30N 37°44' E 023°36'4 8.7
2018-Jan-23 04:00N 37°48' E 023°33'5 9.2
2018-Jan-23 03:30N 37°50' E 023°28'5 9.3
2018-Jan-23 03:00N 37°53' E 023°23'4 9.0
2018-Jan-23 02:30N 37°57' E 023°22'1 2.5
2018-Jan-23 02:00N 37°58' E 023°22'0 0.0
2018-Jan-23 01:30N 37°58' E 023°22'0 0.0
2018-Jan-23 01:00N 37°58' E 023°22'0 0.0
2018-Jan-23 00:30N 37°58' E 023°22'0 0.0
2018-Jan-23 00:00N 37°58' E 023°22'0 0.0
2018-Jan-22 23:30N 37°58' E 023°22'0 0.0
2018-Jan-22 23:00N 37°58' E 023°22'0 0.0
2018-Jan-22 22:30N 37°58' E 023°22'0 0.0
2018-Jan-22 22:00N 37°58' E 023°22'0 0.0
2018-Jan-22 21:30N 37°58' E 023°22'0 0.0
2018-Jan-22 21:00N 37°58' E 023°22'0 0.0
2018-Jan-22 20:30N 37°58' E 023°22'0 0.0
2018-Jan-22 20:00N 37°58' E 023°22'0 0.0
2018-Jan-22 19:30N 37°58' E 023°22'0 0.0
2018-Jan-22 19:00N 37°58' E 023°22'0 0.0
2018-Jan-22 18:30N 37°58' E 023°22'0 0.0
2018-Jan-22 18:00N 37°58' E 023°22'0 0.1
2018-Jan-22 17:30N 37°58' E 023°22'2 4.2
2018-Jan-22 17:00N 37°56' E 023°21'1 2.2
2018-Jan-22 16:30N 37°55' E 023°21'2 3.2
2018-Jan-22 16:00N 37°54' E 023°22'2 3.1
2018-Jan-22 15:30N 37°52' E 023°23'2 3.1
2018-Jan-22 15:00N 37°51' E 023°24'1 1.5
2018-Jan-22 14:30N 37°51' E 023°25'1 2.9
2018-Jan-22 14:00N 37°52' E 023°23'2 3.1
2018-Jan-22 13:30N 37°53' E 023°22'2 3.1
2018-Jan-22 13:00N 37°53' E 023°20'2 3.1
2018-Jan-22 12:30N 37°54' E 023°18'2 3.2
2018-Jan-22 12:00N 37°54' E 023°16'2 3.2
2018-Jan-22 11:30N 37°55' E 023°14'2 3.1
2018-Jan-22 11:00N 37°55' E 023°13'2 3.1
2018-Jan-22 10:30N 37°55' E 023°11'0 0.8
2018-Jan-22 10:00N 37°55' E 023°11'1 3.0
2018-Jan-22 09:30N 37°53' E 023°11'1 3.0
2018-Jan-22 09:00N 37°52' E 023°12'1 2.8
2018-Jan-22 08:30N 37°51' E 023°14'1 2.9
2018-Jan-22 08:00N 37°51' E 023°15'2 3.3
2018-Jan-22 07:30N 37°51' E 023°17'2 3.0
2018-Jan-22 07:00N 37°50' E 023°19'2 3.1
2018-Jan-22 06:30N 37°51' E 023°21'2 3.0
2018-Jan-22 06:00N 37°51' E 023°23'1 3.0
2018-Jan-22 05:30N 37°50' E 023°25'3 6.5
2018-Jan-22 05:00N 37°52' E 023°29'5 9.1
2018-Jan-22 04:29N 37°55' E 023°33'4 0.3
2018-Jan-21 17:07N 37°57' E 023°37'0 3.4
2018-Jan-21 17:00N 37°57' E 023°36'4 8.8
2018-Jan-21 16:29N 37°54' E 023°32'5 9.2
2018-Jan-21 15:59N 37°52' E 023°27'3 6.4
2018-Jan-21 15:30N 37°51' E 023°24'1 2.2
2018-Jan-21 15:00N 37°51' E 023°22'2 3.0
2018-Jan-21 14:30N 37°51' E 023°20'1 3.0
2018-Jan-21 14:00N 37°51' E 023°19'1 2.2
2018-Jan-21 13:30N 37°51' E 023°17'1 2.9
2018-Jan-21 13:00N 37°51' E 023°15'1 2.8
2018-Jan-21 12:30N 37°51' E 023°14'1 2.9
2018-Jan-21 12:00N 37°52' E 023°12'1 2.8
2018-Jan-21 11:30N 37°53' E 023°11'1 2.8
2018-Jan-21 11:00N 37°54' E 023°11'1 1.6
2018-Jan-21 10:30N 37°55' E 023°11'1 2.0
2018-Jan-21 10:00N 37°54' E 023°11'2 3.1
2018-Jan-21 09:30N 37°53' E 023°11'2 3.1
2018-Jan-21 09:00N 37°51' E 023°12'1 2.9
2018-Jan-21 08:30N 37°51' E 023°14'2 3.1
2018-Jan-21 08:00N 37°51' E 023°16'2 3.1
2018-Jan-21 07:30N 37°51' E 023°18'1 2.9
2018-Jan-21 07:00N 37°51' E 023°20'1 3.0
2018-Jan-21 06:30N 37°51' E 023°22'1 3.0
2018-Jan-21 06:00N 37°51' E 023°24'2 3.4
2018-Jan-21 05:30N 37°50' E 023°26'5 8.8
2018-Jan-21 04:59N 37°49' E 023°31'4 9.0
2018-Jan-21 04:30N 37°47' E 023°36'5 8.9
2018-Jan-21 04:00N 37°43' E 023°39'18 7.5
2018-Jan-21 01:32N 37°37' E 024°01'0 8.0
2018-Jan-21 01:29N 37°37' E 024°01'8 8.1
2018-Jan-21 00:26N 37°40' E 024°12'6 8.0
2018-Jan-20 23:39N 37°42' E 024°19'1 8.0
2018-Jan-20 23:30N 37°42' E 024°20'4 8.6
2018-Jan-20 23:00N 37°41' E 024°26'4 8.5
2018-Jan-20 22:29N 37°41' E 024°31'4 8.3
2018-Jan-20 22:00N 37°41' E 024°36'4 8.0
2018-Jan-20 21:30N 37°40' E 024°41'19 5.4
2018-Jan-20 18:00N 37°41' E 025°05'2 3.5
2018-Jan-20 17:28N 37°43' E 025°07'1 0.8
2018-Jan-20 16:41N 37°43' E 025°07'1 2.4
2018-Jan-20 16:19N 37°44' E 025°06'6 3.1
2018-Jan-20 14:25N 37°49' E 025°03'9 2.9
2018-Jan-20 11:10N 37°58' E 025°05'8 2.7
2018-Jan-20 08:08N 37°50' E 025°07'1 2.9
2018-Jan-20 07:56N 37°49' E 025°08'1 2.9
2018-Jan-20 07:30N 37°48' E 025°09'2 2.9
2018-Jan-20 06:57N 37°47' E 025°10'1 2.8
2018-Jan-20 06:30N 37°46' E 025°11'1 2.8
2018-Jan-20 06:00N 37°45' E 025°12'2 3.2
2018-Jan-20 05:16N 37°43' E 025°12'1 3.1
2018-Jan-20 05:00N 37°42' E 025°12'2 4.0
2018-Jan-20 04:30N 37°41' E 025°15'0 0.1
2018-Jan-20 04:00N 37°41' E 025°15'3 5.8
2018-Jan-20 03:30N 37°39' E 025°16'5 9.2
2018-Jan-20 03:00N 37°34' E 025°16'5 9.4
2018-Jan-20 02:30N 37°29' E 025°16'5 9.4
2018-Jan-20 02:00N 37°25' E 025°17'4 8.6
2018-Jan-20 01:30N 37°23' E 025°23'1 1.1
2018-Jan-20 01:00N 37°23' E 025°23'1 2.9
2018-Jan-20 00:30N 37°22' E 025°22'1 3.0
2018-Jan-20 00:00N 37°21' E 025°21'2 4.2
2018-Jan-19 23:30N 37°21' E 025°18'1 1.5
2018-Jan-19 23:00N 37°21' E 025°19'2 3.2
2018-Jan-19 22:30N 37°21' E 025°21'2 3.3
2018-Jan-19 22:00N 37°22' E 025°23'2 3.2
2018-Jan-19 21:30N 37°23' E 025°24'2 3.1
2018-Jan-19 21:00N 37°23' E 025°26'2 3.0
2018-Jan-19 20:30N 37°24' E 025°28'2 3.1
2018-Jan-19 20:00N 37°24' E 025°30'1 2.8
2018-Jan-19 19:30N 37°24' E 025°31'3 5.6
2018-Jan-19 19:00N 37°27' E 025°31'4 9.0
2018-Jan-19 18:30N 37°30' E 025°27'5 9.6
2018-Jan-19 18:00N 37°34' E 025°23'510.0
2018-Jan-19 17:29N 37°38' E 025°19'5 9.9
2018-Jan-19 17:00N 37°41' E 025°15'1 1.0
2018-Jan-19 16:30N 37°42' E 025°14'1 2.4
2018-Jan-19 16:00N 37°42' E 025°13'2 2.9
2018-Jan-19 15:28N 37°43' E 025°12'1 3.1
2018-Jan-19 15:00N 37°45' E 025°12'2 2.9
2018-Jan-19 14:24N 37°46' E 025°11'12 3.1
2018-Jan-19 10:40N 37°57' E 025°05'0 0.6
2018-Jan-19 09:56N 37°57' E 025°05'9 3.0
2018-Jan-19 07:01N 37°48' E 025°09'1 3.0
2018-Jan-19 06:50N 37°48' E 025°09'1 3.0
2018-Jan-19 06:26N 37°47' E 025°10'3 3.0
2018-Jan-19 05:30N 37°45' E 025°12'2 3.0
2018-Jan-19 05:00N 37°43' E 025°12'3 5.7
2018-Jan-19 04:30N 37°41' E 025°14'4 7.5
2018-Jan-19 04:00N 37°37' E 025°16'4 7.6
2018-Jan-19 03:30N 37°34' E 025°15'4 7.9
2018-Jan-19 03:00N 37°31' E 025°12'2 4.2
2018-Jan-19 02:30N 37°32' E 025°10'0 0.0
2018-Jan-19 02:00N 37°32' E 025°10'0 0.0
2018-Jan-19 01:05N 37°32' E 025°10'0 0.0
2018-Jan-19 00:54N 37°32' E 025°10'0 0.0
2018-Jan-19 00:21N 37°32' E 025°10'0 0.0
2018-Jan-18 23:58N 37°32' E 025°10'0 0.0
2018-Jan-18 23:25N 37°32' E 025°10'0 0.0
2018-Jan-18 22:58N 37°32' E 025°10'0 0.0
2018-Jan-18 22:30N 37°32' E 025°10'0 0.0
2018-Jan-18 21:59N 37°32' E 025°10'0 0.0
2018-Jan-18 21:28N 37°32' E 025°10'0 0.0
2018-Jan-18 21:00N 37°32' E 025°10'0 0.0
2018-Jan-18 20:29N 37°32' E 025°10'0 0.0
2018-Jan-18 20:00N 37°32' E 025°10'0 0.0
2018-Jan-18 19:29N 37°32' E 025°10'0 0.0
2018-Jan-18 19:00N 37°32' E 025°10'0 0.0
2018-Jan-18 18:30N 37°32' E 025°10'0 0.0
2018-Jan-18 18:00N 37°32' E 025°10'0 0.0
2018-Jan-18 17:30N 37°32' E 025°10'0 0.0
2018-Jan-18 17:00N 37°32' E 025°10'0 0.0
2018-Jan-18 16:30N 37°32' E 025°10'0 0.0
2018-Jan-18 16:00N 37°32' E 025°10'0 0.0
2018-Jan-18 15:30N 37°32' E 025°10'0 0.0
2018-Jan-18 15:00N 37°32' E 025°10'0 0.0
2018-Jan-18 14:30N 37°32' E 025°10'0 0.0
2018-Jan-18 14:00N 37°32' E 025°10'0 0.0
2018-Jan-18 13:30N 37°32' E 025°10'0 0.0
2018-Jan-18 13:00N 37°32' E 025°10'0 0.0
2018-Jan-18 12:24N 37°32' E 025°10'0 0.0
2018-Jan-18 12:00N 37°32' E 025°10'0 0.0
2018-Jan-18 11:30N 37°32' E 025°10'0 0.0
2018-Jan-18 11:00N 37°32' E 025°10'0 0.0
2018-Jan-18 10:30N 37°32' E 025°10'0 0.0
2018-Jan-18 10:00N 37°32' E 025°10'0 0.0
2018-Jan-18 09:30N 37°32' E 025°10'0 0.0
2018-Jan-18 09:00N 37°32' E 025°10'0 0.0
2018-Jan-18 08:25N 37°32' E 025°10'0 0.0
2018-Jan-18 08:00N 37°32' E 025°10'1 1.5
2018-Jan-18 07:30N 37°32' E 025°09'3 6.6
2018-Jan-18 07:00N 37°31' E 025°14'2 4.7
2018-Jan-18 06:30N 37°33' E 025°14'0 0.1
2018-Jan-18 06:00N 37°33' E 025°14'0 0.1
2018-Jan-18 05:30N 37°33' E 025°14'0 0.0
2018-Jan-18 05:00N 37°33' E 025°14'0 0.0
2018-Jan-18 04:30N 37°33' E 025°14'0 0.0
2018-Jan-18 04:00N 37°33' E 025°14'0 0.2
2018-Jan-18 03:30N 37°33' E 025°14'0 0.6
2018-Jan-18 03:00N 37°34' E 025°14'3 6.7
2018-Jan-18 02:30N 37°37' E 025°16'6 9.2
2018-Jan-18 01:50N 37°40' E 025°09'  

Dump ship's entire track history